首页
METAR-TAF:

METAR-TAF

机场 :

Wahoo, 內布拉斯加州, 美国

纬度: 41-14-26N, 经度: 096-35-40W, 海拔: 373米

当前天气观测

该预报发布于28分钟前的21:15 UTC
风速5节,风向
温度 23°C
湿度 89%
气压 1019 hPa
能見度: 16.1公里
多云层高于1500英尺
多云层高于2500英尺
阴天层高于11000英尺

METAR: KAHQ 212115Z AUTO 35005KT 10SM BKN015 BKN025 OVC110 23/21 A3008 RMK AO2 T02320208

时间: 16:43 (21:43 UTC)


TAF: 丢失

超过4000个机场的气象观测和天气预报(METAR&TAF报告)。

可查询的气象台以黄色和红色小点在地图上表示。

将鼠标移到小点上方,可查看气象台名称。

然后点击查看天气观测和预报。

如需切换地图:点击带黑十字的绿色按钮放大地图;点击带横线的绿色按钮缩小地图;或者点击绿色箭头查看邻近地区的地图。


METAR-TAF: